Ana Sayfa
METAR-TAF:

METAR-TAF

Havaalanları :

Caldwell, New Jersey, Amerika Birleşik Devletleri

Enlem: 40-52-35N, Boylam: 074-16-59W, yükseklik: 52 m

Güncel hava durumu gözlemi

Rapor saat 23:53 UTC de 42 dakika önce yapıldı.
Rüzgar batıdan 4 kt
Sıcaklık 5°C
Nem 56%
Basınç 1009 hPa
Görüş mesafesi: 16.1 km
6000 ft yükseklikte parçalı çok bulutlu

METAR: KCDW 262353Z 26004KT 10SM BKN060 05/M03 A2980 RMK AO2 SLP097 T00501028 10078 20050 51012

Saat: 19:35 (00:35 UTC)


TAF: eksik

4.000'den fazla havaalanı için hava durumu gözlemleri ve tahminleri (METAR ve TAF raporları).

Kullanılabilir istasyonlar harita üzerinde sarı ve kırmızı noktalarla gösterilir.

İstasyonun adını görmek için fareyi noktanın üzerinde gezdirin.

Sonrasında hava gözlem ve tahminlerini görmek için tıklayın.

Haritayı değiştirmek için: yaklaştırmak için siyah artı işaretli yeşil düğmeye ve uzaklaştırmak için de eksi işaretli düğmeye hızla tıklayın; bitişik haritalar için yeşil okları kullanın.


METAR-TAF: